Time;durP1;ratioP1;P1;durP2;ratioP2;P2;SDS_P1;SDS_P2;PMS_P1;PMS_P2;Temp;Humidity;BMP_temperature;BMP_pressure;BME280_temperature;BME280_humidity;BME280_pressure;Samples;Min_cycle;Max_cycle;Signal;HPM_P1;HPM_P2
2021/09/07 00:01:32;;;;;;;19.63;8.13;;;;;;;10.85;62.64;101820.28;126290;1099;104143;-82
2021/09/07 00:04:03;;;;;;;18.57;8.00;;;;;;;10.91;62.39;101819.73;126355;1099;104172;-81
2021/09/07 00:06:34;;;;;;;22.30;7.70;;;;;;;10.90;62.59;101821.43;126359;1099;105717;-81
2021/09/07 00:09:12;;;;;;;20.53;8.00;;;;;;;10.93;62.67;101823.34;126238;1099;104283;-81
2021/09/07 00:11:44;;;;;;;18.55;6.80;;;;;;;10.95;62.47;101814.73;126284;1099;104143;-82
2021/09/07 00:14:15;;;;;;;19.23;7.30;;;;;;;10.97;62.45;101817.45;126313;1099;104153;-82
2021/09/07 00:16:46;;;;;;;19.20;7.80;;;;;;;11.02;62.83;101826.47;126287;1099;104229;-80
2021/09/07 00:19:18;;;;;;;20.40;7.87;;;;;;;11.06;62.79;101823.17;126325;1099;104264;-81
2021/09/07 00:21:48;;;;;;;18.50;7.73;;;;;;;11.06;62.85;101828.42;126309;1099;104402;-82
2021/09/07 00:24:20;;;;;;;18.17;7.70;;;;;;;11.03;63.14;101828.30;126352;1098;104157;-82
2021/09/07 00:26:51;;;;;;;21.60;7.23;;;;;;;11.00;63.01;101827.20;126346;1099;104300;-80
2021/09/07 00:29:23;;;;;;;18.90;7.53;;;;;;;11.00;63.34;101824.56;126346;1099;104133;-81
2021/09/07 00:31:54;;;;;;;17.53;7.60;;;;;;;10.93;62.92;101821.60;126286;1099;104272;-81
2021/09/07 00:34:26;;;;;;;;;;;;;;;10.86;62.84;101818.55;126374;1099;104229;-81
2021/09/07 00:36:57;;;;;;;20.13;7.17;;;;;;;10.83;63.32;101826.25;126290;1099;104265;-81
2021/09/07 00:39:30;;;;;;;16.97;7.47;;;;;;;10.76;63.26;101825.02;126268;1099;104255;-81
2021/09/07 00:42:02;;;;;;;18.90;7.17;;;;;;;10.68;63.69;101829.84;126333;1099;104140;-81
2021/09/07 00:44:33;;;;;;;17.07;7.50;;;;;;;10.64;63.30;101822.59;126392;1099;104238;-81
2021/09/07 00:47:07;;;;;;;16.97;7.23;;;;;;;10.63;63.69;101828.69;126316;1099;104309;-80
2021/09/07 00:49:38;;;;;;;24.33;7.73;;;;;;;10.56;63.39;101829.14;126315;1099;104191;-81
2021/09/07 00:52:10;;;;;;;20.43;7.93;;;;;;;10.51;63.81;101823.63;126287;1099;104144;-81
2021/09/07 00:54:42;;;;;;;18.73;7.90;;;;;;;10.49;64.44;101827.89;126308;1099;104264;-82
2021/09/07 00:57:15;;;;;;;20.80;7.73;;;;;;;10.51;64.46;101835.86;126290;1099;104165;-82
2021/09/07 00:59:48;;;;;;;20.70;7.97;;;;;;;10.54;64.43;101836.03;126294;1099;104144;-82
2021/09/07 01:02:23;;;;;;;22.25;8.00;;;;;;;10.55;63.98;101829.95;126375;1099;104198;-82
2021/09/07 01:04:56;;;;;;;19.53;8.33;;;;;;;10.58;64.10;101824.87;126333;1099;104255;-82
2021/09/07 01:07:31;;;;;;;22.48;8.13;;;;;;;10.59;63.91;101826.69;126390;1099;104159;-82
2021/09/07 01:10:05;;;;;;;17.20;7.67;;;;;;;10.65;64.79;101824.41;126267;1099;104169;-82
2021/09/07 01:12:37;;;;;;;21.90;8.43;;;;;;;10.73;64.46;101822.22;126308;1099;104419;-81
2021/09/07 01:15:10;;;;;;;15.67;7.23;;;;;;;10.77;64.25;101827.73;126372;1099;104278;-82
2021/09/07 01:17:41;;;;;;;19.67;6.83;;;;;;;10.84;64.50;101822.83;126355;1099;104252;-81
2021/09/07 01:20:15;;;;;;;24.00;7.97;;;;;;;10.83;64.49;101826.25;126309;1099;104185;-81
2021/09/07 01:22:46;;;;;;;18.47;7.47;;;;;;;10.78;64.38;101821.67;126355;1099;104261;-82
2021/09/07 01:25:19;;;;;;;19.27;7.93;;;;;;;10.76;64.30;101818.03;126328;1099;104479;-81
2021/09/07 01:27:49;;;;;;;20.80;7.90;;;;;;;10.73;64.50;101819.59;126330;1099;104751;-81
2021/09/07 01:30:23;;;;;;;20.30;7.77;;;;;;;10.72;64.57;101816.08;126320;1099;104312;-82
2021/09/07 01:32:56;;;;;;;18.37;7.13;;;;;;;10.70;64.63;101811.55;126365;1099;104232;-81
2021/09/07 01:35:26;;;;;;;17.57;7.60;;;;;;;10.66;64.77;101820.98;126334;1099;104255;-81
2021/09/07 01:37:59;;;;;;;20.90;7.40;;;;;;;10.61;65.15;101819.80;126323;1099;104402;-82
2021/09/07 01:40:30;;;;;;;19.17;7.43;;;;;;;10.58;64.83;101814.38;126238;1099;101986;-80
2021/09/07 01:43:01;;;;;;;19.00;7.67;;;;;;;10.59;65.01;101810.94;126339;1099;104181;-82
2021/09/07 01:45:32;;;;;;;18.57;7.40;;;;;;;10.56;64.93;101818.64;126374;1099;104249;-81
2021/09/07 01:48:04;;;;;;;17.97;7.00;;;;;;;10.45;65.31;101812.78;126295;1099;104242;-81
2021/09/07 01:50:36;;;;;;;20.03;7.67;;;;;;;10.39;65.33;101812.42;126278;1099;104325;-81
2021/09/07 01:53:07;;;;;;;19.20;7.37;;;;;;;10.37;65.69;101814.96;126388;1097;102050;-82
2021/09/07 01:55:38;;;;;;;20.27;7.37;;;;;;;10.37;65.62;101814.06;126365;1099;104259;-81
2021/09/07 01:58:10;;;;;;;17.60;7.30;;;;;;;10.34;65.06;101816.52;126377;1099;104245;-82
2021/09/07 02:00:40;;;;;;;18.90;7.53;;;;;;;10.30;65.30;101804.92;126237;1099;104227;-81
2021/09/07 02:03:12;;;;;;;19.90;7.30;;;;;;;10.32;65.21;101813.77;126332;1098;104156;-81
2021/09/07 02:05:44;;;;;;;20.63;7.60;;;;;;;10.35;65.93;101810.47;126343;1098;104204;-82
2021/09/07 02:08:17;;;;;;;19.03;7.37;;;;;;;10.35;65.94;101802.59;126395;1099;104149;-82
2021/09/07 02:10:48;;;;;;;20.77;7.43;;;;;;;10.35;66.03;101808.73;126311;1099;104239;-82
2021/09/07 02:13:21;;;;;;;20.30;7.27;;;;;;;10.37;65.96;101807.09;126305;1099;104178;-81
2021/09/07 02:15:53;;;;;;;17.50;7.30;;;;;;;10.36;65.70;101812.25;126319;1099;104184;-81
2021/09/07 02:18:24;;;;;;;20.23;7.40;;;;;;;10.33;65.52;101809.45;126354;1099;104952;-81
2021/09/07 02:20:55;;;;;;;29.13;7.90;;;;;;;10.29;66.34;101808.34;126309;1099;104232;-80
2021/09/07 02:23:26;;;;;;;23.77;8.07;;;;;;;10.26;66.37;101803.81;126350;1099;104147;-82
2021/09/07 02:25:57;;;;;;;19.60;7.20;;;;;;;10.26;66.51;101806.44;126323;1099;104268;-81
2021/09/07 02:28:29;;;;;;;19.07;7.30;;;;;;;10.19;66.18;101803.37;126356;1099;104373;-80
2021/09/07 02:31:00;;;;;;;16.93;7.27;;;;;;;10.08;66.46;101801.05;126279;1099;104248;-82
2021/09/07 02:33:31;;;;;;;18.67;7.37;;;;;;;10.00;65.93;101806.64;126343;1099;104267;-81
2021/09/07 02:36:05;;;;;;;19.95;7.55;;;;;;;9.91;66.20;101804.41;126369;1099;104201;-82
2021/09/07 02:38:35;;;;;;;19.90;8.50;;;;;;;9.87;65.97;101807.64;126355;1099;104265;-82
2021/09/07 02:41:06;;;;;;;17.70;7.37;;;;;;;9.82;66.64;101811.72;126274;1099;104146;-82
2021/09/07 02:43:38;;;;;;;22.03;8.03;;;;;;;9.80;67.10;101802.83;126374;1099;104172;-81
2021/09/07 02:46:09;;;;;;;18.33;7.73;;;;;;;9.79;67.02;101806.30;126337;1099;104147;-82
2021/09/07 02:48:40;;;;;;;16.87;7.10;;;;;;;9.81;67.21;101807.27;126277;1099;104201;-82
2021/09/07 02:51:13;;;;;;;19.63;6.73;;;;;;;9.85;67.20;101804.93;126330;1099;104219;-80
2021/09/07 02:53:45;;;;;;;18.93;7.77;;;;;;;9.88;67.01;101810.36;126246;1099;104622;-80
2021/09/07 02:56:18;;;;;;;20.60;6.90;;;;;;;9.95;67.33;101803.75;126307;1099;104166;-81
2021/09/07 02:58:51;;;;;;;18.40;7.47;;;;;;;9.99;67.33;101802.23;126328;1099;104669;-82
2021/09/07 03:01:23;;;;;;;19.37;7.20;;;;;;;10.03;66.75;101801.58;126298;1099;104162;-80
2021/09/07 03:03:55;;;;;;;19.57;7.57;;;;;;;10.01;67.25;101801.48;126337;1098;104200;-81
2021/09/07 03:06:26;;;;;;;20.93;7.27;;;;;;;10.00;67.37;101799.70;126291;1099;104675;-81
2021/09/07 03:09:02;;;;;;;16.77;7.73;;;;;;;9.96;66.82;101808.19;125428;1099;104177;-80
2021/09/07 03:11:33;;;;;;;20.53;7.57;;;;;;;9.94;67.42;101808.90;126314;1099;104219;-82
2021/09/07 03:14:07;;;;;;;19.57;7.00;;;;;;;9.94;67.32;101809.83;126366;1099;104153;-81
2021/09/07 03:16:37;;;;;;;19.53;7.47;;;;;;;9.91;67.14;101812.27;126302;1099;104217;-82
2021/09/07 03:19:11;;;;;;;22.17;7.40;;;;;;;9.94;66.92;101808.90;126317;1098;104566;-82
2021/09/07 03:21:42;;;;;;;20.73;8.43;;;;;;;9.90;67.15;101813.06;126300;1099;104736;-81
2021/09/07 03:24:15;;;;;;;18.07;8.05;;;;;;;9.87;67.37;101818.12;126335;1099;104595;-82
2021/09/07 03:26:47;;;;;;;19.53;7.70;;;;;;;9.87;67.42;101819.02;126357;1099;104146;-81
2021/09/07 03:29:17;;;;;;;19.77;8.70;;;;;;;9.88;67.74;101822.57;126320;1099;104146;-81
2021/09/07 03:31:49;;;;;;;21.30;8.80;;;;;;;9.86;67.39;101821.55;126207;1098;104147;-82
2021/09/07 03:34:21;;;;;;;24.77;9.23;;;;;;;9.86;67.73;101818.93;126341;1099;104197;-80
2021/09/07 03:36:53;;;;;;;22.93;8.23;;;;;;;9.80;66.96;101823.80;126180;1099;104178;-81
2021/09/07 03:39:24;;;;;;;23.00;8.23;;;;;;;9.75;67.41;101828.77;126363;1099;104175;-81
2021/09/07 03:41:55;;;;;;;19.87;7.93;;;;;;;9.74;67.73;101826.06;126318;1099;105669;-82
2021/09/07 03:44:28;;;;;;;20.83;8.70;;;;;;;9.73;67.48;101826.89;126338;1099;104408;-81
2021/09/07 03:47:00;;;;;;;19.47;8.40;;;;;;;9.74;67.39;101831.30;126267;1098;104201;-81
2021/09/07 03:49:31;;;;;;;19.63;8.10;;;;;;;9.79;68.03;101829.88;126368;1098;104156;-81
2021/09/07 03:52:04;;;;;;;18.43;7.90;;;;;;;9.79;67.42;101828.16;126348;1098;104197;-81
2021/09/07 03:54:37;;;;;;;24.17;8.10;;;;;;;9.83;67.90;101831.86;126322;1099;104341;-81
2021/09/07 03:57:08;;;;;;;21.60;8.60;;;;;;;9.86;67.31;101832.04;126259;1099;104245;-82
2021/09/07 03:59:39;;;;;;;22.10;8.00;;;;;;;9.89;67.72;101840.09;126282;1099;104168;-82
2021/09/07 04:02:11;;;;;;;22.50;8.50;;;;;;;9.93;67.99;101835.95;126208;1099;104160;-81
2021/09/07 04:04:46;;;;;;;27.40;8.57;;;;;;;9.95;67.99;101836.94;126356;1099;104140;-81
2021/09/07 04:07:17;;;;;;;23.07;8.43;;;;;;;9.97;67.52;101837.92;126307;1098;104672;-81
2021/09/07 04:09:49;;;;;;;28.63;9.90;;;;;;;9.98;68.15;101838.02;126277;1099;104356;-81
2021/09/07 04:12:22;;;;;;;;;;;;;;;10.00;67.25;101848.59;126334;1099;104210;-81
2021/09/07 04:14:53;;;;;;;23.37;8.83;;;;;;;9.99;67.76;101845.08;126291;1099;104219;-82
2021/09/07 04:17:25;;;;;;;24.37;9.27;;;;;;;9.97;67.51;101849.34;126388;1099;104153;-81
2021/09/07 04:19:58;;;;;;;23.00;9.00;;;;;;;10.00;67.64;101849.52;126298;1099;104143;-81
2021/09/07 04:22:31;;;;;;;29.60;10.57;;;;;;;10.03;68.15;101851.41;126283;1098;104306;-81
2021/09/07 04:25:05;;;;;;;26.73;8.77;;;;;;;10.09;67.91;101846.52;126325;1099;104185;-82
2021/09/07 04:27:37;;;;;;;26.47;9.50;;;;;;;10.11;67.73;101846.61;126363;1098;104191;-81
2021/09/07 04:30:09;;;;;;;23.50;8.03;;;;;;;10.11;67.83;101850.13;126309;1099;104149;-81
2021/09/07 04:32:40;;;;;;;24.97;7.70;;;;;;;10.13;68.24;101842.35;126312;1099;104149;-80
2021/09/07 04:35:13;;;;;;;23.27;7.97;;;;;;;10.10;68.25;101848.34;126277;1099;108276;-82
2021/09/07 04:37:43;;;;;;;22.13;8.90;;;;;;;10.12;67.82;101853.68;126337;1099;104265;-82
2021/09/07 04:40:16;;;;;;;23.33;8.13;;;;;;;10.13;68.02;101858.09;126301;1099;104169;-82
2021/09/07 04:42:48;;;;;;;24.23;8.37;;;;;;;10.02;67.93;101833.84;126338;1099;104197;-82
2021/09/07 04:45:20;;;;;;;24.13;9.60;;;;;;;10.12;68.40;101848.44;126258;1099;104301;-81
2021/09/07 04:47:51;;;;;;;22.80;8.20;;;;;;;10.16;68.35;101856.58;126329;1099;104408;-81
2021/09/07 04:50:23;;;;;;;24.53;8.97;;;;;;;10.21;67.99;101852.49;126287;1099;104220;-82
2021/09/07 04:52:55;;;;;;;27.57;9.30;;;;;;;10.23;68.46;101857.83;126229;1099;104368;-81
2021/09/07 04:55:27;;;;;;;27.75;9.45;;;;;;;10.31;68.19;101858.28;125400;1099;104181;-81
2021/09/07 04:57:59;;;;;;;30.63;9.87;;;;;;;10.38;68.23;101866.63;126242;1099;104335;-81
2021/09/07 05:00:29;;;;;;;31.13;10.13;;;;;;;10.46;68.54;101861.83;126119;1099;104230;-80
2021/09/07 05:03:00;;;;;;;30.30;10.53;;;;;;;10.56;68.27;101864.16;125389;1099;104551;-80
2021/09/07 05:05:31;;;;;;;31.27;11.60;;;;;;;10.68;68.23;101865.70;125214;1102;105553;-80
2021/09/07 05:08:02;;;;;;;31.27;11.83;;;;;;;10.76;68.30;101862.67;125250;1102;104290;-81
2021/09/07 05:10:33;;;;;;;31.43;10.67;;;;;;;10.85;68.13;101866.66;125232;1102;104229;-81
2021/09/07 05:13:04;;;;;;;27.47;11.53;;;;;;;10.89;68.48;101866.92;125246;1102;104371;-81
2021/09/07 05:15:35;;;;;;;27.77;10.30;;;;;;;10.90;68.56;101862.55;125229;1102;102982;-81
2021/09/07 05:18:08;;;;;;;27.70;10.77;;;;;;;10.93;68.39;101863.63;125241;1099;104249;-82
2021/09/07 05:20:44;;;;;;;26.73;11.13;;;;;;;10.99;68.33;101863.07;125143;1099;104152;-79
2021/09/07 05:23:16;;;;;;;26.57;9.67;;;;;;;11.09;68.26;101869.73;125213;1102;104294;-80
2021/09/07 05:25:47;;;;;;;25.67;8.90;;;;;;;11.15;68.04;101870.97;125226;1099;104306;-79
2021/09/07 05:28:20;;;;;;;25.10;9.40;;;;;;;11.21;67.97;101877.40;125302;1102;104592;-78
2021/09/07 05:30:51;;;;;;;24.87;10.70;;;;;;;11.25;67.39;101868.84;125269;1102;104149;-79
2021/09/07 05:33:24;;;;;;;23.53;10.23;;;;;;;11.28;67.50;101869.94;125260;1102;104166;-80
2021/09/07 05:35:56;;;;;;;25.70;10.17;;;;;;;11.33;67.32;101875.45;125168;1099;103010;-79
2021/09/07 05:38:27;;;;;;;26.10;9.17;;;;;;;11.38;67.09;101873.97;126115;1099;104274;-79
2021/09/07 05:40:59;;;;;;;23.63;9.10;;;;;;;11.43;67.34;101880.36;126219;1099;104262;-79
2021/09/07 05:43:30;;;;;;;25.17;9.57;;;;;;;11.49;66.76;101875.44;126237;1098;104178;-80
2021/09/07 05:46:02;;;;;;;24.63;8.73;;;;;;;11.56;66.48;101878.40;126181;1099;104255;-80
2021/09/07 05:48:33;;;;;;;21.07;7.80;;;;;;;11.61;66.57;101876.91;126150;1098;104255;-80
2021/09/07 05:51:04;;;;;;;20.77;8.27;;;;;;;11.67;66.44;101878.16;126128;1099;104253;-78
2021/09/07 05:53:35;;;;;;;25.10;9.40;;;;;;;11.75;66.38;101875.94;126053;1099;104570;-79
2021/09/07 05:56:10;;;;;;;18.87;7.80;;;;;;;11.81;65.93;101876.27;126197;1099;104214;-78
2021/09/07 05:58:41;;;;;;;23.10;8.20;;;;;;;11.87;65.58;101870.41;126138;1099;104143;-80
2021/09/07 06:01:17;;;;;;;22.13;8.47;;;;;;;11.93;65.47;101872.50;126104;1099;104326;-78
2021/09/07 06:03:52;;;;;;;22.77;7.10;;;;;;;11.98;65.25;101864.03;126166;1099;104281;-77
2021/09/07 06:06:24;;;;;;;23.25;8.25;;;;;;;12.04;65.03;101868.69;126116;1099;104299;-77
2021/09/07 06:08:57;;;;;;;21.00;8.10;;;;;;;12.11;65.32;101875.19;126079;1099;104217;-78
2021/09/07 06:11:29;;;;;;;19.57;7.40;;;;;;;12.18;65.09;101872.02;126152;1098;104197;-80
2021/09/07 06:14:00;;;;;;;19.17;7.10;;;;;;;12.20;64.32;101881.81;126240;1099;104143;-77
2021/09/07 06:16:36;;;;;;;19.57;7.63;;;;;;;12.25;64.54;101874.16;126230;1099;104306;-77
2021/09/07 06:19:08;;;;;;;19.60;7.53;;;;;;;12.34;64.41;101878.97;126125;1099;104152;-78
2021/09/07 06:21:42;;;;;;;23.87;7.50;;;;;;;12.39;64.10;101878.38;126194;1098;104240;-79
2021/09/07 06:24:16;;;;;;;20.50;7.40;;;;;;;12.46;64.28;101887.48;126077;1099;104203;-80
2021/09/07 06:26:52;;;;;;;20.70;7.13;;;;;;;12.57;64.12;101883.67;126063;1099;104650;-78
2021/09/07 06:29:33;;;;;;;18.85;7.00;;;;;;;12.68;64.25;101888.55;126090;1099;104217;-78
2021/09/07 06:32:08;;;;;;;23.33;6.93;;;;;;;12.80;64.19;101894.42;126233;1099;104156;-77
2021/09/07 06:34:43;;;;;;;17.30;6.67;;;;;;;12.90;63.56;101891.42;126096;1099;104242;-79
2021/09/07 06:37:16;;;;;;;18.73;6.97;;;;;;;13.00;63.64;101890.13;126173;1099;104198;-79
2021/09/07 06:39:49;;;;;;;15.77;6.50;;;;;;;13.09;63.13;101902.84;126035;1099;104240;-79
2021/09/07 06:42:27;;;;;;;17.52;5.97;;;;;;;13.19;63.22;101894.52;126000;1099;104198;-80
2021/09/07 06:45:07;;;;;;;17.30;5.60;;;;;;;13.30;62.42;101901.20;126060;1099;104197;-76
2021/09/07 06:47:39;;;;;;;15.47;6.67;;;;;;;13.42;62.53;101895.64;126141;1099;104274;-77
2021/09/07 06:50:24;;;;;;;17.20;6.37;;;;;;;13.56;62.64;101895.39;126168;1099;104149;-77
2021/09/07 06:52:59;;;;;;;18.70;6.63;;;;;;;13.70;62.92;101895.98;126257;1099;104250;-77
2021/09/07 06:55:45;;;;;;;17.30;7.17;;;;;;;13.82;61.42;101894.83;126162;1098;104204;-75
2021/09/07 06:58:31;;;;;;;19.47;7.40;;;;;;;13.94;61.88;101899.72;125208;1102;104155;-76
2021/09/07 07:01:03;;;;;;;15.77;6.57;;;;;;;14.07;61.77;101898.55;125063;1102;104181;-79
2021/09/07 07:06:40;;;;;;;21.33;7.07;;;;;;;14.32;61.94;101894.30;124576;1109;104325;-76
2021/09/07 07:09:16;;;;;;;19.60;6.37;;;;;;;14.47;62.14;101899.34;124573;1105;104310;-76
2021/09/07 07:11:49;;;;;;;18.80;6.33;;;;;;;14.63;60.88;101903.55;124633;1109;104383;-75
2021/09/07 07:14:21;;;;;;;20.80;6.57;;;;;;;14.76;60.77;101908.52;124609;1105;104236;-77
2021/09/07 07:17:08;;;;;;;19.57;6.43;;;;;;;14.93;60.36;101901.28;124576;1109;104243;-76
2021/09/07 07:22:43;;;;;;;19.20;5.73;;;;;;;15.29;60.19;101908.86;124309;1112;104178;-76
2021/09/07 07:25:19;;;;;;;16.77;6.20;;;;;;;15.43;59.99;101910.28;124358;1109;104345;-78
2021/09/07 07:27:51;;;;;;;16.20;6.03;;;;;;;15.56;59.51;101911.64;124315;1108;104335;-78
2021/09/07 07:30:25;;;;;;;18.27;6.03;;;;;;;15.74;59.99;101914.09;124519;1109;104246;-77
2021/09/07 07:33:00;;;;;;;15.20;5.70;;;;;;;15.93;59.12;101907.75;124360;1108;104299;-77
2021/09/07 07:35:34;;;;;;;13.90;5.50;;;;;;;16.11;59.57;101920.76;124514;1109;104827;-77
2021/09/07 07:38:06;;;;;;;14.93;5.47;;;;;;;16.25;58.35;101910.66;124598;1109;104248;-76
2021/09/07 07:40:44;;;;;;;16.00;6.30;;;;;;;16.32;58.89;101906.46;124654;1109;104316;-78
2021/09/07 07:43:17;;;;;;;15.47;5.87;;;;;;;16.44;58.24;101901.59;124707;1105;104299;-75
2021/09/07 07:45:51;;;;;;;17.00;5.70;;;;;;;16.60;57.99;101907.41;124930;1102;104316;-75
2021/09/07 07:48:23;;;;;;;18.03;5.60;;;;;;;16.73;57.20;101906.94;124817;1102;104514;-76
2021/09/07 07:50:56;;;;;;;13.75;5.15;;;;;;;16.83;57.68;101903.75;124894;1103;104335;-77
2021/09/07 07:53:27;;;;;;;15.13;5.20;;;;;;;16.90;56.84;101896.92;124911;1102;104194;-76
2021/09/07 07:56:00;;;;;;;16.73;4.93;;;;;;;17.02;56.75;101897.31;125232;1099;104181;-76
2021/09/07 07:58:42;;;;;;;16.80;5.50;;;;;;;17.15;56.95;101892.39;125214;1099;104201;-77
2021/09/07 08:01:16;;;;;;;15.07;5.30;;;;;;;17.25;56.39;101895.38;125616;1099;104144;-79
2021/09/07 08:03:50;;;;;;;14.73;5.40;;;;;;;17.39;56.24;101890.48;126251;1099;104226;-78
2021/09/07 08:06:22;;;;;;;20.43;5.47;;;;;;;17.51;56.42;101891.70;126230;1099;104219;-76
2021/09/07 08:08:53;;;;;;;14.03;5.13;;;;;;;17.61;56.06;101888.47;126224;1098;104156;-78
2021/09/07 08:11:25;;;;;;;13.80;5.03;;;;;;;17.72;54.82;101886.12;126345;1099;104140;-77
2021/09/07 08:13:57;;;;;;;10.93;4.53;;;;;;;17.81;55.37;101882.81;125987;1099;104248;-77
2021/09/07 08:16:32;;;;;;;16.17;5.00;;;;;;;17.92;55.08;101887.61;126152;1099;104158;-77
2021/09/07 08:19:06;;;;;;;9.53;4.40;;;;;;;18.00;54.12;101897.52;126253;1099;104171;-78
2021/09/07 08:21:39;;;;;;;13.97;4.47;;;;;;;18.05;54.81;101887.95;126296;1099;104188;-79
2021/09/07 08:24:23;;;;;;;13.63;4.57;;;;;;;18.10;53.32;101884.53;125416;1099;104272;-81
2021/09/07 08:26:54;;;;;;;12.40;4.47;;;;;;;18.16;53.20;101880.27;125396;1099;104210;-79
2021/09/07 08:29:29;;;;;;;12.83;4.43;;;;;;;18.25;53.30;101875.20;126136;1099;104179;-76
2021/09/07 08:32:02;;;;;;;12.67;4.90;;;;;;;18.33;53.84;101879.83;125387;1099;104139;-76
2021/09/07 08:34:36;;;;;;;13.90;4.40;;;;;;;18.42;52.94;101875.64;126200;1099;104287;-76
2021/09/07 08:37:10;;;;;;;14.00;4.35;;;;;;;18.54;52.80;101872.36;126183;1099;104285;-76
2021/09/07 08:39:44;;;;;;;10.03;4.10;;;;;;;18.62;52.24;101871.70;125354;1102;104303;-76
2021/09/07 08:42:18;;;;;;;10.37;4.17;;;;;;;18.74;52.42;101870.20;126146;1099;104210;-76
2021/09/07 08:44:50;;;;;;;14.83;4.60;;;;;;;18.86;52.09;101871.41;126076;1099;104171;-76
2021/09/07 08:47:26;;;;;;;9.10;4.00;;;;;;;18.95;51.10;101869.85;126195;1099;104200;-76
2021/09/07 08:50:01;;;;;;;11.70;4.10;;;;;;;19.02;51.66;101867.33;125168;1102;104175;-77
2021/09/07 08:52:39;;;;;;;10.40;4.50;;;;;;;19.00;50.42;101871.73;125233;1102;104285;-76
2021/09/07 08:55:13;;;;;;;13.93;4.80;;;;;;;19.08;50.61;101871.02;125321;1099;104290;-78
2021/09/07 08:57:46;;;;;;;8.57;3.87;;;;;;;19.13;49.72;101869.35;125420;1099;104245;-79
2021/09/07 09:00:27;;;;;;;11.33;3.90;;;;;;;19.13;49.97;101870.23;125402;1099;104169;-77
2021/09/07 09:03:07;;;;;;;13.23;4.30;;;;;;;19.22;50.36;101861.57;126079;1099;104680;-77
2021/09/07 09:05:44;;;;;;;12.17;3.80;;;;;;;19.32;50.29;101854.67;126079;1099;104297;-76
2021/09/07 09:08:18;;;;;;;13.33;4.07;;;;;;;19.52;49.86;101850.66;125166;1102;104338;-77
2021/09/07 09:11:06;;;;;;;7.40;3.23;;;;;;;19.65;49.39;101851.83;125191;1102;104208;-77
2021/09/07 09:13:48;;;;;;;6.57;3.10;;;;;;;19.72;48.99;101851.06;125204;1102;104159;-76
2021/09/07 09:16:21;;;;;;;4.87;3.10;;;;;;;19.84;48.15;101841.56;125295;1102;104267;-76
2021/09/07 09:18:57;;;;;;;7.53;3.40;;;;;;;19.89;48.46;101846.09;125207;1102;104159;-76
2021/09/07 09:21:32;;;;;;;7.20;3.20;;;;;;;19.87;47.34;101842.52;125167;1099;104252;-76
2021/09/07 09:24:18;;;;;;;5.27;3.00;;;;;;;19.96;46.60;101852.45;125250;1099;104232;-76
2021/09/07 09:26:56;;;;;;;8.67;3.00;;;;;;;19.89;45.76;101850.53;125244;1099;104210;-76
2021/09/07 09:29:33;;;;;;;10.63;3.10;;;;;;;19.95;45.74;101850.64;125334;1099;104393;-79
2021/09/07 09:32:09;;;;;;;9.37;3.23;;;;;;;20.02;46.37;101844.54;126096;1099;104232;-77
2021/09/07 09:34:44;;;;;;;7.63;2.90;;;;;;;20.10;45.36;101850.93;126151;1099;104139;-77
2021/09/07 09:37:19;;;;;;;8.30;3.30;;;;;;;20.21;44.43;101842.20;125349;1099;104174;-77
2021/09/07 09:39:53;;;;;;;5.93;2.90;;;;;;;20.30;45.04;101837.03;126092;1099;104136;-79
2021/09/07 09:42:34;;;;;;;5.67;3.00;;;;;;;20.38;44.17;101845.16;126167;1099;104200;-78
2021/09/07 09:45:08;;;;;;;4.27;2.57;;;;;;;20.46;44.58;101846.20;126172;1099;104301;-76
2021/09/07 09:47:44;;;;;;;7.17;3.00;;;;;;;20.49;44.56;101838.27;126050;1099;104243;-77
2021/09/07 09:50:19;;;;;;;7.67;2.83;;;;;;;20.52;44.00;101835.64;126154;1099;104252;-77
2021/09/07 09:52:51;;;;;;;6.23;3.27;;;;;;;20.55;44.50;101840.99;126272;1099;104152;-78
2021/09/07 09:55:23;;;;;;;8.63;3.10;;;;;;;20.55;43.45;101829.44;126241;1099;104235;-76
2021/09/07 09:57:58;;;;;;;6.63;3.07;;;;;;;20.58;44.29;101832.16;126108;1099;104143;-78
2021/09/07 10:00:33;;;;;;;10.03;3.10;;;;;;;20.58;43.34;101825.05;126213;1099;104293;-75
2021/09/07 10:03:11;;;;;;;6.65;2.90;;;;;;;20.63;42.56;101833.11;126300;1098;104192;-76
2021/09/07 10:05:44;;;;;;;7.03;2.87;;;;;;;20.68;43.41;101830.55;126216;1099;104262;-77
2021/09/07 10:08:18;;;;;;;6.03;3.00;;;;;;;20.72;42.16;101827.07;126070;1099;104175;-77
2021/09/07 10:10:59;;;;;;;6.73;2.77;;;;;;;20.75;41.48;101830.67;126164;1099;104152;-76
2021/09/07 10:13:39;;;;;;;5.47;3.17;;;;;;;20.77;41.24;101836.95;125891;1099;105715;-78
2021/09/07 10:16:13;;;;;;;6.97;2.93;;;;;;;20.79;40.83;101829.85;125984;1099;104210;-77
2021/09/07 10:18:51;;;;;;;6.57;2.97;;;;;;;20.86;41.54;101827.27;125217;1099;104169;-77
2021/09/07 10:25:00;;;;;;;9.27;3.50;;;;;;;20.95;40.76;101828.30;125006;1099;104332;-78
2021/09/07 10:27:57;;;;;;;7.30;3.47;;;;;;;21.00;39.95;101828.36;125128;1099;104274;-78
2021/09/07 10:30:52;;;;;;;7.53;3.20;;;;;;;20.99;40.11;101835.48;125111;1099;104273;-78
2021/09/07 10:33:38;;;;;;;8.17;3.00;;;;;;;21.03;39.85;101827.52;125411;1099;104337;-80
2021/09/07 10:36:19;;;;;;;6.10;2.97;;;;;;;21.05;40.14;101824.00;125304;1099;104160;-78
2021/09/07 10:38:53;;;;;;;8.53;3.30;;;;;;;21.08;40.13;101820.45;125342;1099;104268;-77
2021/09/07 10:41:44;;;;;;;7.50;3.35;;;;;;;21.14;40.67;101818.75;125224;1099;104299;-79
2021/09/07 10:44:31;;;;;;;10.70;3.40;;;;;;;21.18;40.34;101814.38;125269;1102;104313;-78
2021/09/07 10:47:03;;;;;;;;;;;;;;;21.21;39.87;101810.83;126328;1098;104146;-79
2021/09/07 10:49:50;;;;;;;5.77;3.37;;;;;;;21.24;39.81;101810.87;126184;1099;104232;-78
2021/09/07 10:52:25;;;;;;;7.50;3.63;;;;;;;21.28;40.02;101807.37;126055;1099;104339;-77
2021/09/07 10:55:18;;;;;;;7.80;3.40;;;;;;;21.33;40.15;101808.31;126150;1099;104194;-76
2021/09/07 10:57:59;;;;;;;6.97;3.20;;;;;;;21.40;39.08;101812.86;126145;1098;104136;-76
2021/09/07 11:00:37;;;;;;;7.83;3.67;;;;;;;21.44;39.51;101805.77;126182;1099;105716;-76
2021/09/07 11:03:11;;;;;;;6.17;3.40;;;;;;;21.44;39.45;101800.43;126191;1099;104223;-76
2021/09/07 11:05:49;;;;;;;10.07;3.13;;;;;;;21.44;39.30;101796.01;126188;1099;104267;-76
2021/09/07 11:08:45;;;;;;;9.57;3.50;;;;;;;21.41;39.08;101795.97;126225;1099;104198;-79
2021/09/07 11:11:31;;;;;;;7.53;3.13;;;;;;;21.40;38.96;101786.16;126226;1099;104713;-76
2021/09/07 11:14:16;;;;;;;9.03;3.13;;;;;;;21.40;39.07;101786.16;126271;1099;104192;-77
2021/09/07 11:16:58;;;;;;;6.30;2.80;;;;;;;21.37;38.39;101786.13;126302;1099;104582;-78
2021/09/07 11:19:33;;;;;;;6.70;3.37;;;;;;;21.45;38.63;101786.21;126212;1099;104303;-78
2021/09/07 11:22:30;;;;;;;6.77;3.20;;;;;;;21.59;38.41;101789.07;126217;1099;104293;-78
2021/09/07 11:25:10;;;;;;;10.23;3.60;;;;;;;21.65;38.26;101786.47;126279;1099;104243;-77
2021/09/07 11:27:58;;;;;;;6.10;3.10;;;;;;;21.64;37.68;101776.66;126213;1099;104158;-78
2021/09/07 11:30:37;;;;;;;7.85;3.45;;;;;;;21.64;37.96;101776.66;126250;1099;104353;-77
2021/09/07 11:33:13;;;;;;;5.37;3.30;;;;;;;21.59;37.59;101770.38;126112;1099;104140;-76
2021/09/07 11:35:47;;;;;;;9.00;3.73;;;;;;;21.52;38.60;101764.97;126239;1099;104204;-76
2021/09/07 11:38:24;;;;;;;7.27;3.37;;;;;;;21.56;38.19;101757.88;126255;1099;104185;-75
2021/09/07 11:40:59;;;;;;;8.27;3.00;;;;;;;21.61;37.91;101755.25;126135;1099;104200;-75
2021/09/07 11:43:33;;;;;;;9.63;3.57;;;;;;;21.62;37.56;101749.92;126240;1099;104149;-75
2021/09/07 11:46:09;;;;;;;8.57;3.93;;;;;;;21.65;38.12;101751.74;126228;1099;104147;-76